Impacts TAF Board INFO
FOR SITUATIONAL AWARENESS. NOT TO BE USED FOR FLIGHT PLANNING PURPOSES.
IDs:

KCVG - Cincinnati Intl, KY, US

Issued at 1127 UTC 19 Jun 2018
Updated at 1235 UTC 19 Jun 2018
Potential Impact None Slight Moderate High
Time<<20/01Z 20/02Z 20/03Z 20/04Z 20/05Z 20/06Z 20/07Z 20/08Z 20/09Z 20/10Z 20/11Z 20/12Z 20/13Z>>
Type PRVL PRVL PRVL PRVL PRVL PRVL PRVL PRVL PRVL PRVL PRVL PRVL PRVL
VIS >6 >6 >6 >6 >6 >6 >6 >6 >6 >6 >6 >6 >6
CIG 40 40 40 40 40 100 100 100 100 100 100 100 100
Cover BKN BKN BKN BKN BKN BKN BKN BKN BKN BKN BKN BKN BKN
FltCat VFR VFR VFR VFR VFR VFR VFR VFR VFR VFR VFR VFR VFR
WX VCSH VCSH VCSH VCSH VCSH -- -- -- -- -- -- -- --
WDir 270 270 270 270 270 220 220 220 220 220 220 220 220
WSpd 4 4 4 4 4 4 4 4 4 4 4 4 4
WGst -- -- -- -- -- -- -- -- -- -- -- -- --

Raw TAF
KCVG 191127Z 1912/2018 26005KT P6SM SCT050
  FM191800 27007KT P6SM VCTS BKN040CB
  FM192000 27007KT 5SM -SHRA VCTS OVC040CB
  FM200000 27004KT P6SM VCSH BKN040 BKN100
  FM200600 22004KT P6SM SCT050 BKN100
  FM201500 25006KT P6SM VCSH BKN040


METAR Board
Radar Display
Forecast Discussion

FOR SITUATIONAL AWARENESS. NOT TO BE USED FOR FLIGHT PLANNING PURPOSES.